Wetterdaten: Woche 10.07.23 - 16.07.23 (KW28)
Datum Zeit Temp. A. Feuchte A. Luftdruck Regen Wind Richtung Taupunkt Windchill
10.07.2023 00:00 25,3 C 45 % 1023 hPa 0,0 l/m 0,0 km/h (0 Bft) O-NO 12,3 C 25,3 C
10.07.2023 01:00 24,7 C 47 % 1023 hPa 0,0 l/m 0,0 km/h (0 Bft) O-NO 12,5 C 24,7 C
10.07.2023 02:00 23,8 C 52 % 1023 hPa 0,0 l/m 1,8 km/h (1 Bft) N-NO 13,3 C 23,7 C
10.07.2023 03:00 22,2 C 57 % 1023 hPa 0,0 l/m 0,0 km/h (0 Bft) O-SO 13,1 C 22,2 C
10.07.2023 04:00 21,2 C 58 % 1022 hPa 0,0 l/m 0,0 km/h (0 Bft) O-SO 12,7 C 21,2 C
10.07.2023 05:00 20,1 C 62 % 1023 hPa 0,0 l/m 0,0 km/h (0 Bft) O-SO 12,6 C 20,1 C
10.07.2023 06:00 19,8 C 68 % 1023 hPa 0,0 l/m 0,0 km/h (0 Bft) NO 13,6 C 19,8 C
10.07.2023 07:00 20,6 C 69 % 1022 hPa 0,0 l/m 0,0 km/h (0 Bft) NO 14,6 C 20,6 C
10.07.2023 08:00 22,3 C 67 % 1022 hPa 0,0 l/m 0,0 km/h (0 Bft) SW 15,7 C 22,3 C
10.07.2023 09:00 24,3 C 63 % 1023 hPa 0,0 l/m 0,0 km/h (0 Bft) NW 16,7 C 24,3 C
10.07.2023 10:00 26,5 C 58 % 1023 hPa 0,0 l/m 0,0 km/h (0 Bft) W-SW 17,7 C 26,5 C
10.07.2023 11:00 28,3 C 55 % 1023 hPa 0,0 l/m 2,5 km/h (1 Bft) W-NW 18,2 C 28,2 C
10.07.2023 12:00 28,3 C 55 % 1024 hPa 0,0 l/m 2,3 km/h (1 Bft) W-NW 18,3 C 28,2 C
10.07.2023 13:00 27,5 C 57 % 1024 hPa 0,0 l/m 1,7 km/h (1 Bft) W-NW 18,2 C 27,5 C
10.07.2023 14:00 27,2 C 58 % 1024 hPa 0,0 l/m 6,6 km/h (2 Bft) NW 18,3 C 26,7 C
10.07.2023 15:00 27,4 C 56 % 1025 hPa 0,0 l/m 3,1 km/h (1 Bft) W 17,8 C 27,2 C
10.07.2023 16:00 27,9 C 53 % 1024 hPa 0,0 l/m 1,0 km/h (0 Bft) N-NW 17,3 C 27,9 C
10.07.2023 17:00 28,1 C 51 % 1024 hPa 0,0 l/m 0,2 km/h (0 Bft) N 16,9 C 28,1 C
10.07.2023 18:00 26,8 C 53 % 1024 hPa 0,0 l/m 3,8 km/h (1 Bft) N 16,2 C 26,5 C
10.07.2023 19:00 25,1 C 54 % 1024 hPa 0,0 l/m 4,3 km/h (1 Bft) N 15,0 C 24,8 C
10.07.2023 20:00 24,4 C 52 % 1024 hPa 0,0 l/m 0,0 km/h (0 Bft) N-NW 13,9 C 24,4 C
10.07.2023 21:00 22,9 C 54 % 1025 hPa 0,0 l/m 0,0 km/h (0 Bft) N 13,1 C 22,9 C
10.07.2023 22:00 21,6 C 60 % 1025 hPa 0,0 l/m 1,3 km/h (1 Bft) N-NO 13,5 C 21,5 C
10.07.2023 23:00 20,2 C 63 % 1025 hPa 0,0 l/m 0,0 km/h (0 Bft) N-NO 12,8 C 20,2 C
11.07.2023 00:00 19,1 C 65 % 1025 hPa 0,0 l/m 0,0 km/h (0 Bft) N-NO 12,4 C 19,1 C
11.07.2023 01:00 18,0 C 68 % 1025 hPa 0,0 l/m 0,0 km/h (0 Bft) N-NO 12,0 C 18,0 C
11.07.2023 02:00 17,2 C 71 % 1025 hPa 0,0 l/m 0,0 km/h (0 Bft) N-NO 11,8 C 17,2 C
11.07.2023 03:00 16,7 C 73 % 1024 hPa 0,0 l/m 0,0 km/h (0 Bft) N-NO 11,7 C 16,7 C
11.07.2023 04:00 15,9 C 74 % 1024 hPa 0,0 l/m 0,0 km/h (0 Bft) N-NO 11,3 C 15,9 C
11.07.2023 05:00 15,4 C 77 % 1024 hPa 0,0 l/m 0,0 km/h (0 Bft) N-NO 11,3 C 15,4 C
11.07.2023 06:00 15,8 C 78 % 1024 hPa 0,0 l/m 0,0 km/h (0 Bft) N-NO 12,0 C 15,8 C
11.07.2023 07:00 17,6 C 79 % 1024 hPa 0,0 l/m 0,0 km/h (0 Bft) N-NO 13,8 C 17,6 C
11.07.2023 08:00 20,6 C 74 % 1023 hPa 0,0 l/m 8,3 km/h (2 Bft) O-SO 15,8 C 19,5 C
11.07.2023 09:00 23,3 C 66 % 1023 hPa 0,0 l/m 4,7 km/h (1 Bft) O-SO 16,5 C 23,0 C
11.07.2023 10:00 25,5 C 60 % 1022 hPa 0,0 l/m 0,8 km/h (0 Bft) O-SO 17,3 C 25,5 C
11.07.2023 11:00 27,9 C 55 % 1021 hPa 0,0 l/m 0,3 km/h (0 Bft) SO 18,0 C 27,9 C
11.07.2023 12:00 30,0 C 49 % 1020 hPa 0,0 l/m 1,4 km/h (1 Bft) SO 18,0 C 30,0 C
11.07.2023 13:00 31,7 C 44 % 1020 hPa 0,0 l/m 0,0 km/h (0 Bft) SO 18,0 C 31,7 C
11.07.2023 14:00 33,5 C 39 % 1019 hPa 0,0 l/m 0,0 km/h (0 Bft) SO 17,5 C 33,5 C
11.07.2023 15:00 34,0 C 36 % 1018 hPa 0,0 l/m 1,1 km/h (1 Bft) SO 16,7 C 34,0 C
11.07.2023 16:00 34,7 C 35 % 1018 hPa 0,0 l/m 0,0 km/h (0 Bft) W-SW 16,7 C 34,7 C
11.07.2023 17:00 34,0 C 35 % 1017 hPa 0,0 l/m 0,0 km/h (0 Bft) S 16,1 C 34,0 C
11.07.2023 18:00 33,4 C 35 % 1017 hPa 0,0 l/m 0,0 km/h (0 Bft) SW 15,7 C 33,4 C
11.07.2023 19:00 32,7 C 36 % 1016 hPa 0,0 l/m 1,3 km/h (1 Bft) S-SO 15,5 C 32,7 C
11.07.2023 20:00 31,2 C 39 % 1016 hPa 0,0 l/m 0,0 km/h (0 Bft) S 15,6 C 31,2 C
11.07.2023 21:00 28,3 C 43 % 1015 hPa 0,0 l/m 0,0 km/h (0 Bft) O-SO 14,3 C 28,3 C
11.07.2023 22:00 25,9 C 48 % 1014 hPa 0,0 l/m 0,0 km/h (0 Bft) O-SO 14,0 C 25,9 C
11.07.2023 23:00 24,3 C 51 % 1014 hPa 0,0 l/m 0,0 km/h (0 Bft) O-SO 13,5 C 24,3 C
12.07.2023 00:00 23,7 C 53 % 1014 hPa 0,0 l/m 0,0 km/h (0 Bft) O 13,6 C 23,7 C
12.07.2023 01:00 23,5 C 55 % 1014 hPa 0,0 l/m 0,0 km/h (0 Bft) O-NO 14,0 C 23,5 C
12.07.2023 02:00 23,8 C 55 % 1014 hPa 0,0 l/m 0,0 km/h (0 Bft) S 14,2 C 23,8 C
12.07.2023 03:00 24,4 C 56 % 1014 hPa 0,0 l/m 1,0 km/h (0 Bft) W 15,1 C 24,4 C
12.07.2023 04:00 23,5 C 59 % 1014 hPa 0,0 l/m 0,0 km/h (0 Bft) S-SO 14,9 C 23,5 C
12.07.2023 05:00 22,4 C 63 % 1014 hPa 0,0 l/m 0,0 km/h (0 Bft) S 14,9 C 22,4 C
12.07.2023 06:00 21,8 C 67 % 1014 hPa 0,0 l/m 0,2 km/h (0 Bft) S-SW 15,3 C 21,8 C
12.07.2023 07:00 22,0 C 68 % 1014 hPa 0,0 l/m 0,8 km/h (0 Bft) SW 15,8 C 22,0 C
12.07.2023 08:00 23,3 C 65 % 1014 hPa 0,0 l/m 0,0 km/h (0 Bft) W-SW 16,4 C 23,3 C
12.07.2023 09:00 24,8 C 63 % 1015 hPa 0,0 l/m 0,3 km/h (0 Bft) W 17,2 C 24,8 C
12.07.2023 10:00 24,6 C 63 % 1015 hPa 0,0 l/m 0,0 km/h (0 Bft) NW 17,1 C 24,6 C
12.07.2023 11:00 24,3 C 64 % 1016 hPa 0,0 l/m 0,0 km/h (0 Bft) NW 17,1 C 24,3 C
12.07.2023 12:00 26,5 C 55 % 1016 hPa 0,0 l/m 0,0 km/h (0 Bft) W-NW 16,8 C 26,5 C
12.07.2023 13:00 27,7 C 47 % 1016 hPa 0,0 l/m 1,6 km/h (1 Bft) W-NW 15,4 C 27,6 C
12.07.2023 14:00 28,3 C 45 % 1016 hPa 0,0 l/m 0,3 km/h (0 Bft) NW 15,3 C 28,3 C
12.07.2023 15:00 28,9 C 43 % 1016 hPa 0,0 l/m 1,6 km/h (1 Bft) W-NW 15,1 C 28,8 C
12.07.2023 16:00 29,4 C 40 % 1016 hPa 0,0 l/m 0,2 km/h (0 Bft) NW 14,3 C 29,4 C
12.07.2023 17:00 29,6 C 39 % 1016 hPa 0,0 l/m 0,0 km/h (0 Bft) N-NW 14,2 C 29,6 C
12.07.2023 18:00 27,9 C 41 % 1016 hPa 0,0 l/m 1,1 km/h (1 Bft) N-NW 13,5 C 27,9 C
12.07.2023 19:00 26,6 C 44 % 1016 hPa 0,0 l/m 0,2 km/h (0 Bft) N-NW 13,3 C 26,6 C
12.07.2023 20:00 25,3 C 46 % 1016 hPa 0,0 l/m 0,0 km/h (0 Bft) N 12,7 C 25,3 C
12.07.2023 21:00 23,8 C 46 % 1017 hPa 0,0 l/m 1,3 km/h (1 Bft) N 11,5 C 23,7 C
12.07.2023 22:00 22,6 C 48 % 1018 hPa 0,0 l/m 0,8 km/h (0 Bft) N-NW 10,8 C 22,6 C
12.07.2023 23:00 21,7 C 49 % 1018 hPa 0,0 l/m 0,0 km/h (0 Bft) N 10,6 C 21,7 C
13.07.2023 00:00 20,9 C 52 % 1019 hPa 0,0 l/m 0,0 km/h (0 Bft) N 10,5 C 20,9 C
13.07.2023 01:00 19,9 C 54 % 1019 hPa 0,0 l/m 0,0 km/h (0 Bft) N-NO 10,3 C 19,9 C
13.07.2023 02:00 18,9 C 58 % 1019 hPa 0,0 l/m 0,0 km/h (0 Bft) N-NO 10,5 C 18,9 C
13.07.2023 03:00 18,7 C 60 % 1019 hPa 0,0 l/m 0,0 km/h (0 Bft) N-NO 10,7 C 18,7 C
13.07.2023 04:00 18,1 C 61 % 1019 hPa 0,0 l/m 0,0 km/h (0 Bft) NW 10,4 C 18,1 C
13.07.2023 05:00 17,1 C 63 % 1020 hPa 0,0 l/m 0,0 km/h (0 Bft) N-NW 10,0 C 17,1 C
13.07.2023 06:00 16,8 C 65 % 1020 hPa 0,0 l/m 0,0 km/h (0 Bft) W-NW 10,3 C 16,8 C
13.07.2023 07:00 17,6 C 67 % 1020 hPa 0,0 l/m 0,0 km/h (0 Bft) NW 11,3 C 17,6 C
13.07.2023 08:00 18,8 C 66 % 1020 hPa 0,0 l/m 0,0 km/h (0 Bft) W 12,3 C 18,8 C
13.07.2023 09:00 20,6 C 61 % 1021 hPa 0,0 l/m 0,0 km/h (0 Bft) N 12,8 C 20,6 C
13.07.2023 10:00 21,7 C 57 % 1021 hPa 0,0 l/m 0,0 km/h (0 Bft) W 12,8 C 21,7 C
13.07.2023 11:00 22,7 C 51 % 1021 hPa 0,0 l/m 0,0 km/h (0 Bft) W-SW 12,0 C 22,7 C
13.07.2023 12:00 24,0 C 45 % 1021 hPa 0,0 l/m 0,0 km/h (0 Bft) W-SW 11,2 C 24,0 C
13.07.2023 13:00 25,2 C 40 % 1021 hPa 0,0 l/m 1,0 km/h (0 Bft) W-NW 10,5 C 25,2 C
13.07.2023 14:00 25,8 C 38 % 1021 hPa 0,0 l/m 0,0 km/h (0 Bft) NW 10,3 C 25,8 C
13.07.2023 15:00 26,2 C 37 % 1021 hPa 0,0 l/m 0,7 km/h (0 Bft) W-NW 10,3 C 26,2 C
13.07.2023 16:00 26,4 C 36 % 1021 hPa 0,0 l/m 0,0 km/h (0 Bft) S-SW 10,2 C 26,4 C
13.07.2023 17:00 26,4 C 36 % 1021 hPa 0,0 l/m 1,2 km/h (1 Bft) W-NW 10,1 C 26,4 C
13.07.2023 18:00 25,2 C 37 % 1021 hPa 0,0 l/m 1,9 km/h (1 Bft) N-NW 9,5 C 25,1 C
13.07.2023 19:00 24,0 C 40 % 1021 hPa 0,0 l/m 0,0 km/h (0 Bft) N-NO 9,4 C 24,0 C
13.07.2023 20:00 22,8 C 42 % 1022 hPa 0,0 l/m 0,0 km/h (0 Bft) N-NW 9,2 C 22,8 C
13.07.2023 21:00 21,0 C 46 % 1022 hPa 0,0 l/m 0,0 km/h (0 Bft) NW 9,0 C 21,0 C
13.07.2023 22:00 20,1 C 51 % 1023 hPa 0,0 l/m 1,1 km/h (1 Bft) N-NO 9,6 C 20,1 C
13.07.2023 23:00 17,6 C 61 % 1024 hPa 0,0 l/m 0,0 km/h (0 Bft) N 9,9 C 17,6 C
14.07.2023 00:00 16,2 C 63 % 1024 hPa 0,0 l/m 0,0 km/h (0 Bft) N 9,1 C 16,2 C
14.07.2023 01:00 14,9 C 67 % 1024 hPa 0,0 l/m 0,0 km/h (0 Bft) N 8,8 C 14,9 C
14.07.2023 02:00 14,1 C 70 % 1024 hPa 0,0 l/m 0,0 km/h (0 Bft) N 8,6 C 14,1 C
14.07.2023 03:00 13,8 C 72 % 1024 hPa 0,0 l/m 0,0 km/h (0 Bft) SO 8,9 C 13,8 C
14.07.2023 04:00 13,5 C 74 % 1024 hPa 0,0 l/m 0,0 km/h (0 Bft) SO 8,8 C 13,5 C
14.07.2023 05:00 12,8 C 75 % 1024 hPa 0,0 l/m 0,0 km/h (0 Bft) SO 8,6 C 12,8 C
14.07.2023 06:00 13,2 C 76 % 1024 hPa 0,0 l/m 0,0 km/h (0 Bft) S-SO 9,0 C 13,2 C
14.07.2023 07:00 14,2 C 76 % 1024 hPa 0,0 l/m 0,0 km/h (0 Bft) SO 10,0 C 14,2 C
14.07.2023 08:00 16,6 C 72 % 1024 hPa 0,0 l/m 0,0 km/h (0 Bft) S-SO 11,6 C 16,6 C
14.07.2023 09:00 19,2 C 67 % 1023 hPa 0,0 l/m 0,0 km/h (0 Bft) SO 12,8 C 19,2 C
14.07.2023 10:00 21,4 C 58 % 1023 hPa 0,0 l/m 1,0 km/h (0 Bft) S-SO 12,6 C 21,4 C
14.07.2023 11:00 24,0 C 49 % 1022 hPa 0,0 l/m 0,0 km/h (0 Bft) S-SO 12,6 C 24,0 C
14.07.2023 12:00 25,1 C 45 % 1022 hPa 0,0 l/m 0,7 km/h (0 Bft) S-SO 12,3 C 25,1 C
14.07.2023 13:00 26,2 C 42 % 1022 hPa 0,0 l/m 0,0 km/h (0 Bft) O-SO 12,2 C 26,2 C
14.07.2023 14:00 27,8 C 39 % 1021 hPa 0,0 l/m 0,0 km/h (0 Bft) O-SO 12,4 C 27,8 C
14.07.2023 15:00 28,3 C 36 % 1020 hPa 0,0 l/m 0,0 km/h (0 Bft) N-NO 11,9 C 28,3 C
14.07.2023 16:00 30,4 C 33 % 1020 hPa 0,0 l/m 1,1 km/h (1 Bft) S-SO 12,3 C 30,4 C
14.07.2023 17:00 30,4 C 32 % 1019 hPa 0,0 l/m 0,1 km/h (0 Bft) O 11,9 C 30,4 C
14.07.2023 18:00 28,8 C 33 % 1018 hPa 0,0 l/m 0,0 km/h (0 Bft) SW 11,1 C 28,8 C
14.07.2023 19:00 27,1 C 35 % 1018 hPa 0,0 l/m 0,2 km/h (0 Bft) S-SO 10,1 C 27,1 C
14.07.2023 20:00 26,0 C 37 % 1018 hPa 0,0 l/m 0,0 km/h (0 Bft) S-SO 10,1 C 26,0 C
14.07.2023 21:00 24,0 C 40 % 1018 hPa 0,0 l/m 0,0 km/h (0 Bft) S-SO 9,4 C 24,0 C
14.07.2023 22:00 22,3 C 42 % 1018 hPa 0,0 l/m 0,0 km/h (0 Bft) O-SO 8,9 C 22,3 C
14.07.2023 23:00 21,3 C 45 % 1018 hPa 0,0 l/m 0,0 km/h (0 Bft) O-SO 8,7 C 21,3 C
15.07.2023 00:00 20,3 C 47 % 1017 hPa 0,0 l/m 0,0 km/h (0 Bft) O-SO 8,4 C 20,3 C
15.07.2023 01:00 19,7 C 49 % 1017 hPa 0,0 l/m 0,0 km/h (0 Bft) O-SO 8,5 C 19,7 C
15.07.2023 02:00 18,6 C 51 % 1017 hPa 0,0 l/m 0,0 km/h (0 Bft) O-SO 8,2 C 18,6 C
15.07.2023 03:00 18,1 C 53 % 1016 hPa 0,0 l/m 0,0 km/h (0 Bft) O 8,4 C 18,1 C
15.07.2023 04:00 18,0 C 55 % 1016 hPa 0,0 l/m 0,0 km/h (0 Bft) O 8,9 C 18,0 C
15.07.2023 05:00 17,8 C 58 % 1016 hPa 0,0 l/m 0,0 km/h (0 Bft) O 9,3 C 17,8 C
15.07.2023 06:00 18,2 C 60 % 1016 hPa 0,0 l/m 0,0 km/h (0 Bft) W 10,2 C 18,2 C
15.07.2023 07:00 19,6 C 60 % 1016 hPa 0,0 l/m 0,0 km/h (0 Bft) W 11,7 C 19,6 C
15.07.2023 08:00 22,4 C 57 % 1016 hPa 0,0 l/m 0,0 km/h (0 Bft) SW 13,6 C 22,4 C
15.07.2023 09:00 25,6 C 51 % 1016 hPa 0,0 l/m 0,2 km/h (0 Bft) S-SO 14,8 C 25,6 C
15.07.2023 10:00 28,6 C 45 % 1016 hPa 0,0 l/m 0,0 km/h (0 Bft) S-SO 15,4 C 28,6 C
15.07.2023 11:00 31,4 C 39 % 1016 hPa 0,0 l/m 0,0 km/h (0 Bft) SO 15,5 C 31,4 C
15.07.2023 12:00 33,6 C 32 % 1016 hPa 0,0 l/m 2,3 km/h (1 Bft) O-SO 14,7 C 33,6 C
15.07.2023 13:00 35,0 C 30 % 1015 hPa 0,0 l/m 1,1 km/h (0 Bft) S-SO 15,0 C 35,0 C
15.07.2023 14:00 36,2 C 28 % 1015 hPa 0,0 l/m 0,8 km/h (0 Bft) W-SW 14,5 C 36,2 C
15.07.2023 15:00 36,0 C 29 % 1015 hPa 0,0 l/m 5,8 km/h (2 Bft) SO 14,8 C 36,0 C
15.07.2023 16:00 36,3 C 29 % 1014 hPa 0,0 l/m 1,1 km/h (1 Bft) S-SO 15,1 C 36,3 C
15.07.2023 17:00 35,0 C 30 % 1014 hPa 0,0 l/m 0,0 km/h (0 Bft) W 14,6 C 35,0 C
15.07.2023 18:00 32,6 C 33 % 1013 hPa 0,0 l/m 1,5 km/h (1 Bft) W-NW 14,1 C 32,6 C
15.07.2023 19:00 30,9 C 37 % 1013 hPa 0,0 l/m 4,2 km/h (1 Bft) N 14,4 C 30,8 C
15.07.2023 20:00 28,5 C 44 % 1015 hPa 0,5 l/m 1,4 km/h (1 Bft) W-NW 14,9 C 28,5 C
15.07.2023 21:00 21,0 C 71 % 1017 hPa 1,6 l/m 0,0 km/h (0 Bft) O-SO 15,5 C 21,0 C
15.07.2023 22:00 19,1 C 80 % 1015 hPa 0,0 l/m 0,0 km/h (0 Bft) O-SO 15,5 C 19,1 C
15.07.2023 23:00 18,4 C 82 % 1015 hPa 0,0 l/m 0,0 km/h (0 Bft) O-SO 15,3 C 18,4 C
16.07.2023 00:00 18,1 C 84 % 1016 hPa 0,0 l/m 0,0 km/h (0 Bft) O-SO 15,3 C 18,1 C
16.07.2023 01:00 18,6 C 87 % 1018 hPa 3,1 l/m 0,0 km/h (0 Bft) SW 16,4 C 18,6 C
16.07.2023 02:00 18,3 C 87 % 1017 hPa 0,0 l/m 0,0 km/h (0 Bft) S-SO 16,1 C 18,3 C
16.07.2023 03:00 18,2 C 88 % 1017 hPa 0,0 l/m 0,0 km/h (0 Bft) W 16,1 C 18,2 C
16.07.2023 04:00 18,1 C 89 % 1017 hPa 0,0 l/m 0,0 km/h (0 Bft) S-SO 16,2 C 18,1 C
16.07.2023 05:00 18,0 C 89 % 1017 hPa 0,0 l/m 0,2 km/h (0 Bft) SW 16,0 C 18,0 C
16.07.2023 06:00 18,1 C 89 % 1018 hPa 0,0 l/m 0,0 km/h (0 Bft) S-SW 16,2 C 18,1 C
16.07.2023 07:00 18,5 C 88 % 1019 hPa 0,0 l/m 0,0 km/h (0 Bft) W-SW 16,4 C 18,5 C
16.07.2023 08:00 19,2 C 83 % 1020 hPa 0,0 l/m 0,0 km/h (0 Bft) W 16,2 C 19,2 C
16.07.2023 09:00 20,8 C 72 % 1020 hPa 0,0 l/m 0,0 km/h (0 Bft) W 15,4 C 20,8 C
16.07.2023 10:00 21,4 C 64 % 1020 hPa 0,5 l/m 0,0 km/h (0 Bft) SO 14,2 C 21,4 C
16.07.2023 11:00 23,1 C 57 % 1020 hPa 0,0 l/m 0,0 km/h (0 Bft) SO 14,0 C 23,1 C
16.07.2023 12:00 24,7 C 50 % 1021 hPa 0,0 l/m 0,2 km/h (0 Bft) W-NW 13,6 C 24,7 C
16.07.2023 13:00 25,4 C 46 % 1021 hPa 0,0 l/m 0,1 km/h (0 Bft) W-SW 12,9 C 25,4 C
16.07.2023 14:00 26,1 C 44 % 1021 hPa 0,0 l/m 0,4 km/h (0 Bft) S-SO 12,9 C 26,1 C
16.07.2023 15:00 27,1 C 41 % 1021 hPa 0,0 l/m 0,0 km/h (0 Bft) W 12,8 C 27,1 C
16.07.2023 16:00 28,0 C 38 % 1021 hPa 0,0 l/m 1,7 km/h (1 Bft) SW 12,5 C 27,9 C
16.07.2023 17:00 28,1 C 38 % 1021 hPa 0,0 l/m 0,4 km/h (0 Bft) S-SO 12,2 C 28,1 C
16.07.2023 18:00 27,0 C 39 % 1021 hPa 0,0 l/m 1,9 km/h (1 Bft) W-SW 11,6 C 27,0 C
16.07.2023 19:00 25,5 C 40 % 1021 hPa 0,0 l/m 0,0 km/h (0 Bft) SW 10,9 C 25,5 C
16.07.2023 20:00 23,8 C 43 % 1021 hPa 0,0 l/m 0,0 km/h (0 Bft) SW 10,4 C 23,8 C
16.07.2023 21:00 21,2 C 48 % 1021 hPa 0,0 l/m 0,0 km/h (0 Bft) SW 9,8 C 21,2 C
16.07.2023 22:00 19,6 C 51 % 1022 hPa 0,0 l/m 0,0 km/h (0 Bft) SW 9,2 C 19,6 C
16.07.2023 23:00 18,3 C 55 % 1022 hPa 0,0 l/m 0,0 km/h (0 Bft) SW 9,1 C 18,3 C
Min-Datum _ 14.07.23 15.07.23 15.07.23 - 16.07.23 - 15.07.23 14.07.23
_ Min-Zeit 05:12 16:02 19:02 - 23:02 - 02:42 05:12
Minimum _ 12,8 C 27 % 1013 hPa - 0,0 km/h (0 Bft) - 7,9 C 12,8 C
Max-Datum _ 15.07.23 16.07.23 11.07.23 16.07.23 10.07.23 - 10.07.23 15.07.23
_ Max-Zeit 16:32 06:02 03:02 01:22 15:32 - 12:22 16:32
Maximum _ 36,6 C 89 % 1025 hPa 3,1 l/m 18,4 km/h
W (3 Bft)
- 18,7 C 36,6 C
Durchschnitt _ 23,6 C 54 % 1019 hPa #5,7 l/m 0,5 km/h (0 Bft) O-SO 13,2 C 23,6 C